Time;durP1;ratioP1;P1;durP2;ratioP2;P2;SDS_P1;SDS_P2;PMS_P1;PMS_P2;Temp;Humidity;BMP_temperature;BMP_pressure;BME280_temperature;BME280_humidity;BME280_pressure;Samples;Min_cycle;Max_cycle;Signal;HPM_P1;HPM_P2
2024/02/26 00:01:14;;;;;;;19.33;14.23;;;;;;;6.64;100.00;92577.06;5060953;28;20060;-74
2024/02/26 00:03:42;;;;;;;15.95;11.88;;;;;;;6.71;100.00;92590.56;5068413;28;20048;-74
2024/02/26 00:06:09;;;;;;;17.85;11.90;;;;;;;6.78;100.00;92588.00;5061589;28;20154;-74
2024/02/26 00:08:35;;;;;;;19.52;12.55;;;;;;;6.89;100.00;92589.94;5067540;28;20049;-74
2024/02/26 00:11:02;;;;;;;14.30;11.05;;;;;;;6.95;100.00;92578.16;5068449;28;20048;-74
2024/02/26 00:13:29;;;;;;;15.15;10.73;;;;;;;7.00;100.00;92582.63;5065194;28;20063;-74
2024/02/26 00:15:56;;;;;;;16.63;10.55;;;;;;;7.01;100.00;92574.78;5067273;28;20048;-74
2024/02/26 00:18:25;;;;;;;17.60;11.60;;;;;;;7.04;100.00;92573.59;5069543;28;20044;-75
2024/02/26 00:20:51;;;;;;;15.30;10.40;;;;;;;7.02;100.00;92578.88;5066530;28;20053;-75
2024/02/26 00:23:18;;;;;;;20.33;12.38;;;;;;;7.02;100.00;92568.69;5068846;28;20426;-75
2024/02/26 00:25:45;;;;;;;18.20;11.70;;;;;;;7.15;100.00;92578.06;5064100;28;20051;-75
2024/02/26 00:28:15;;;;;;;20.63;13.52;;;;;;;7.14;100.00;92576.50;5063956;28;20424;-75
2024/02/26 00:30:42;;;;;;;20.17;13.32;;;;;;;7.10;100.00;92572.78;5061749;28;20062;-75
2024/02/26 00:33:08;;;;;;;21.40;14.85;;;;;;;7.18;100.00;92566.66;5068801;28;20055;-74
2024/02/26 00:35:37;;;;;;;21.50;14.05;;;;;;;7.15;100.00;92551.72;5068757;28;20046;-74
2024/02/26 00:38:04;;;;;;;19.00;13.13;;;;;;;7.26;100.00;92568.19;5065534;28;20128;-74
2024/02/26 00:40:31;;;;;;;15.57;10.63;;;;;;;7.25;100.00;92564.03;5067710;28;20056;-74
2024/02/26 00:42:58;;;;;;;19.15;12.40;;;;;;;7.13;100.00;92557.03;5065449;28;20048;-74
2024/02/26 00:45:25;;;;;;;16.77;11.07;;;;;;;7.15;100.00;92565.28;5068436;28;20045;-74
2024/02/26 00:47:52;;;;;;;19.92;12.55;;;;;;;7.19;100.00;92553.66;5064068;28;20053;-74
2024/02/26 00:50:18;;;;;;;19.60;13.70;;;;;;;7.21;100.00;92554.25;5066309;28;20052;-74
2024/02/26 00:52:47;;;;;;;17.17;11.68;;;;;;;7.27;100.00;92552.63;5067688;28;20387;-74
2024/02/26 00:55:14;;;;;;;19.35;12.88;;;;;;;7.26;100.00;92550.31;5065324;28;20379;-74
2024/02/26 00:57:41;;;;;;;20.80;13.45;;;;;;;7.26;100.00;92551.06;5064090;28;20052;-74
2024/02/26 01:00:09;;;;;;;18.10;12.20;;;;;;;7.34;100.00;92548.28;5067420;28;20510;-74
2024/02/26 01:02:38;;;;;;;13.55;10.48;;;;;;;7.35;100.00;92542.19;5067940;28;20071;-75
2024/02/26 01:05:06;;;;;;;17.33;11.98;;;;;;;7.31;100.00;92541.00;5061975;28;20044;-74
2024/02/26 01:07:35;;;;;;;16.38;11.55;;;;;;;7.30;100.00;92547.13;5065293;28;20044;-74
2024/02/26 01:10:05;;;;;;;20.58;12.40;;;;;;;7.39;100.00;92534.88;5068683;28;20098;-74
2024/02/26 01:12:32;;;;;;;15.95;11.00;;;;;;;7.39;100.00;92542.53;5065270;28;20048;-74
2024/02/26 01:14:59;;;;;;;16.17;11.40;;;;;;;7.42;100.00;92543.91;5067488;28;20127;-74
2024/02/26 01:17:26;;;;;;;17.90;11.20;;;;;;;7.44;100.00;92537.59;5068028;28;20048;-74
2024/02/26 01:19:54;;;;;;;16.40;11.38;;;;;;;7.42;100.00;92526.81;5067353;28;20444;-73
2024/02/26 01:22:21;;;;;;;19.85;12.98;;;;;;;7.54;100.00;92537.13;5060263;28;20056;-74
2024/02/26 01:24:48;;;;;;;29.48;17.55;;;;;;;7.51;100.00;92532.47;5068019;28;20051;-73
2024/02/26 01:27:16;;;;;;;15.68;10.95;;;;;;;7.56;100.00;92536.94;5067395;28;20159;-74
2024/02/26 01:29:44;;;;;;;17.13;10.68;;;;;;;7.51;100.00;92529.91;5062790;28;20452;-74
2024/02/26 01:32:10;;;;;;;20.50;11.77;;;;;;;7.48;100.00;92525.19;5064970;28;20044;-74
2024/02/26 01:34:37;;;;;;;14.48;11.02;;;;;;;7.52;100.00;92528.09;5066119;28;20048;-74
2024/02/26 01:37:05;;;;;;;17.42;11.00;;;;;;;7.55;100.00;92522.59;5064123;28;20041;-73
2024/02/26 01:39:31;;;;;;;14.98;10.35;;;;;;;7.53;100.00;92529.66;5063269;28;20046;-73
2024/02/26 01:41:58;;;;;;;13.93;10.02;;;;;;;7.52;100.00;92523.78;5066527;28;20044;-74
2024/02/26 01:44:28;;;;;;;15.43;9.90;;;;;;;7.56;100.00;92526.72;5065140;28;20047;-74
2024/02/26 01:46:55;;;;;;;16.98;11.00;;;;;;;7.66;100.00;92531.34;5065586;28;20049;-75
2024/02/26 01:49:22;;;;;;;18.27;11.85;;;;;;;7.69;100.00;92529.16;5064325;28;20047;-74
2024/02/26 01:51:49;;;;;;;15.40;10.60;;;;;;;7.74;100.00;92531.09;5064547;28;20514;-74
2024/02/26 01:54:17;;;;;;;17.40;11.35;;;;;;;7.73;100.00;92527.00;5067094;28;20052;-74
2024/02/26 01:56:43;;;;;;;16.23;10.38;;;;;;;7.77;100.00;92535.03;5063727;28;20067;-74
2024/02/26 01:59:11;;;;;;;16.30;10.60;;;;;;;7.79;100.00;92523.59;5061497;28;20091;-74
2024/02/26 02:01:45;;;;;;;16.05;9.90;;;;;;;7.87;100.00;92523.31;5065852;28;20055;-74
2024/02/26 02:04:12;;;;;;;15.38;9.50;;;;;;;7.95;100.00;92527.38;5064988;28;20059;-74
2024/02/26 02:06:40;;;;;;;16.08;10.88;;;;;;;8.01;100.00;92524.00;5061686;28;20738;-73
2024/02/26 02:09:07;;;;;;;15.13;10.27;;;;;;;8.04;100.00;92514.34;5067026;28;20048;-73
2024/02/26 02:11:34;;;;;;;18.85;11.90;;;;;;;8.07;100.00;92511.34;5062759;28;20052;-74
2024/02/26 02:14:01;;;;;;;18.10;10.32;;;;;;;8.11;100.00;92507.38;5065466;28;20128;-75
2024/02/26 02:16:28;;;;;;;16.05;10.65;;;;;;;8.14;100.00;92510.31;5066790;28;20062;-74
2024/02/26 02:18:56;;;;;;;17.60;10.57;;;;;;;8.17;100.00;92514.22;5066776;28;20048;-74
2024/02/26 02:21:25;;;;;;;15.02;9.50;;;;;;;8.17;100.00;92506.53;5061396;28;20044;-74
2024/02/26 02:23:52;;;;;;;13.95;9.95;;;;;;;8.22;100.00;92511.00;5066703;28;20626;-74
2024/02/26 02:26:19;;;;;;;13.73;9.65;;;;;;;8.19;100.00;92512.22;5064180;28;20505;-74
2024/02/26 02:28:49;;;;;;;17.05;11.23;;;;;;;8.22;100.00;92508.44;5064680;28;20517;-74
2024/02/26 02:31:16;;;;;;;16.10;10.35;;;;;;;8.22;100.00;92509.25;5062064;28;20052;-74
2024/02/26 02:33:44;;;;;;;13.32;8.82;;;;;;;8.19;100.00;92512.22;5064113;28;20532;-74
2024/02/26 02:36:11;;;;;;;12.52;8.80;;;;;;;8.22;100.00;92519.47;5066611;28;20536;-74
2024/02/26 02:38:50;;;;;;;13.55;9.77;;;;;;;8.23;100.00;92513.34;5064547;28;20059;-75
2024/02/26 02:41:17;;;;;;;16.30;11.95;;;;;;;8.19;100.00;92521.69;5063343;28;20046;-75
2024/02/26 02:43:44;;;;;;;10.85;8.73;;;;;;;8.19;100.00;92509.66;5064211;28;20056;-75
2024/02/26 02:46:11;;;;;;;12.90;9.35;;;;;;;8.12;100.00;92496.94;5066262;28;20044;-75
2024/02/26 02:48:38;;;;;;;11.38;8.80;;;;;;;8.22;100.00;92516.91;5066315;28;20048;-75
2024/02/26 02:51:05;;;;;;;12.68;8.68;;;;;;;8.24;100.00;92522.59;5063824;28;20513;-75
2024/02/26 02:53:32;;;;;;;12.65;8.93;;;;;;;8.23;100.00;92513.34;5066316;28;20521;-75
2024/02/26 02:56:01;;;;;;;13.57;8.88;;;;;;;8.20;100.00;92507.88;5063335;28;20494;-75
2024/02/26 02:58:28;;;;;;;11.82;8.77;;;;;;;8.16;100.00;92508.31;5063973;28;20051;-75
2024/02/26 03:00:55;;;;;;;14.77;9.35;;;;;;;8.17;100.00;92511.66;5061929;28;20083;-75
2024/02/26 03:03:24;;;;;;;14.88;9.05;;;;;;;8.15;100.00;92523.88;5066440;28;20044;-75
2024/02/26 03:05:51;;;;;;;11.93;8.18;;;;;;;8.12;100.00;92519.19;5060696;28;20139;-75
2024/02/26 03:08:19;;;;;;;12.60;9.52;;;;;;;8.05;100.00;92506.44;5060013;28;20045;-74
2024/02/26 03:10:46;;;;;;;12.73;9.77;;;;;;;7.77;100.00;92469.31;5062087;28;20521;-74
2024/02/26 03:13:14;;;;;;;15.32;10.45;;;;;;;8.09;100.00;92534.94;5060027;28;20147;-75
2024/02/26 03:15:41;;;;;;;17.60;10.88;;;;;;;8.07;100.00;92532.59;5062343;28;20080;-74
2024/02/26 03:18:08;;;;;;;15.02;10.02;;;;;;;8.07;100.00;92519.03;5066049;28;20080;-74
2024/02/26 03:20:35;;;;;;;18.98;12.80;;;;;;;7.92;100.00;92493.78;5061252;28;20045;-74
2024/02/26 03:23:02;;;;;;;21.38;12.68;;;;;;;8.05;100.00;92510.78;5064922;28;20529;-74
2024/02/26 03:25:29;;;;;;;20.52;12.80;;;;;;;8.02;100.00;92510.19;5065992;28;20128;-74
2024/02/26 03:27:56;;;;;;;20.38;13.63;;;;;;;8.06;100.00;92500.31;5066015;28;20048;-74
2024/02/26 03:30:24;;;;;;;22.05;14.07;;;;;;;8.03;100.00;92498.22;5063888;28;20044;-74
2024/02/26 03:32:51;;;;;;;17.65;12.80;;;;;;;8.00;100.00;92506.28;5061972;28;20055;-74
2024/02/26 03:35:18;;;;;;;19.25;13.32;;;;;;;7.88;100.00;92491.63;5063198;28;20438;-75
2024/02/26 03:37:46;;;;;;;20.33;13.27;;;;;;;7.95;100.00;92501.81;5064115;28;20072;-75
2024/02/26 03:40:14;;;;;;;22.05;13.57;;;;;;;7.84;100.00;92495.63;5060627;28;20044;-75
2024/02/26 03:42:41;;;;;;;22.58;14.45;;;;;;;7.77;100.00;92500.00;5063727;28;20129;-75
2024/02/26 03:45:09;;;;;;;20.55;13.75;;;;;;;7.69;100.00;92490.06;5062936;28;20395;-74
2024/02/26 03:47:39;;;;;;;20.25;13.93;;;;;;;7.77;100.00;92496.69;5065535;28;20093;-73
2024/02/26 03:50:07;;;;;;;21.05;14.20;;;;;;;7.81;100.00;92497.78;5058972;28;20148;-74
2024/02/26 03:52:35;;;;;;;19.58;13.75;;;;;;;7.77;100.00;92496.69;5055719;28;20494;-74
2024/02/26 03:55:01;;;;;;;19.33;13.00;;;;;;;7.68;100.00;92475.72;5065995;28;20044;-74
2024/02/26 03:57:28;;;;;;;17.40;12.10;;;;;;;7.81;100.00;92493.47;5065107;28;20072;-73
2024/02/26 03:59:55;;;;;;;20.02;12.30;;;;;;;7.72;100.00;92480.19;5063201;28;20059;-74
2024/02/26 04:02:23;;;;;;;17.27;11.70;;;;;;;7.79;100.00;92494.69;5064678;28;20127;-73
2024/02/26 04:04:51;;;;;;;15.45;11.15;;;;;;;7.79;100.00;92494.69;5065421;28;20136;-73
2024/02/26 04:07:18;;;;;;;13.52;9.20;;;;;;;7.72;100.00;92492.97;5061244;28;20044;-74
2024/02/26 04:09:45;;;;;;;13.27;9.10;;;;;;;7.72;100.00;92490.41;5065560;28;20136;-74
2024/02/26 04:12:12;;;;;;;13.35;9.77;;;;;;;7.65;100.00;92489.69;5060554;28;20528;-74
2024/02/26 04:14:39;;;;;;;16.27;11.27;;;;;;;7.69;100.00;92482.38;5064092;28;20132;-74
2024/02/26 04:17:06;;;;;;;19.63;10.93;;;;;;;7.69;100.00;92488.25;5060447;28;20059;-74
2024/02/26 04:19:33;;;;;;;22.17;14.20;;;;;;;7.72;100.00;92492.16;5064819;28;20044;-75
2024/02/26 04:22:02;;;;;;;20.73;13.30;;;;;;;7.69;100.00;92469.59;5063931;28;20520;-75
2024/02/26 04:24:29;;;;;;;23.77;14.30;;;;;;;7.69;100.00;92472.91;5062313;28;20490;-75
2024/02/26 04:26:56;;;;;;;24.48;14.70;;;;;;;7.60;100.00;92469.09;5065352;28;20059;-75
2024/02/26 04:29:23;;;;;;;22.63;15.23;;;;;;;7.68;100.00;92484.13;5061892;28;20049;-75
2024/02/26 04:31:50;;;;;;;23.08;13.85;;;;;;;7.72;100.00;92484.50;5064979;28;20086;-75
2024/02/26 04:34:17;;;;;;;24.08;14.10;;;;;;;7.76;100.00;92470.31;5068550;28;20040;-74
2024/02/26 04:36:44;;;;;;;23.05;14.32;;;;;;;7.79;100.00;92474.22;5066839;28;20042;-74
2024/02/26 04:39:13;;;;;;;29.80;15.95;;;;;;;7.79;100.00;92476.78;5068071;28;20417;-74
2024/02/26 04:41:39;;;;;;;43.28;24.48;;;;;;;7.73;100.00;92475.88;5068962;28;20752;-74
2024/02/26 04:44:06;;;;;;;36.05;22.02;;;;;;;7.75;100.00;92474.66;5068582;28;20044;-75
2024/02/26 04:46:34;;;;;;;29.95;17.80;;;;;;;7.51;100.00;92437.09;5061686;28;20047;-74
2024/02/26 04:49:01;;;;;;;27.52;18.13;;;;;;;7.72;100.00;92464.84;5068755;28;20040;-74
2024/02/26 04:51:28;;;;;;;30.75;19.33;;;;;;;7.70;100.00;92466.84;5068435;28;20075;-74
2024/02/26 04:53:55;;;;;;;32.45;18.45;;;;;;;7.38;100.00;92438.78;5067894;28;20842;-74
2024/02/26 04:56:23;;;;;;;31.50;20.80;;;;;;;7.43;100.00;92472.16;5069039;28;20076;-74
2024/02/26 04:58:50;;;;;;;31.67;20.40;;;;;;;7.26;100.00;92478.78;5063216;28;20040;-74
2024/02/26 05:01:18;;;;;;;28.65;17.13;;;;;;;7.30;100.00;92479.91;5065228;28;20148;-74
2024/02/26 05:03:45;;;;;;;23.17;16.60;;;;;;;7.37;100.00;92480.66;5068230;28;20418;-73
2024/02/26 05:06:12;;;;;;;25.08;16.05;;;;;;;7.40;100.00;92482.78;5060122;28;20049;-74
2024/02/26 05:08:39;;;;;;;24.42;15.73;;;;;;;7.45;100.00;92484.72;5065158;28;20063;-74
2024/02/26 05:11:06;;;;;;;26.17;17.17;;;;;;;7.44;100.00;92489.06;5068480;28;20425;-73
2024/02/26 05:13:35;;;;;;;26.45;16.92;;;;;;;7.48;100.00;92481.75;5062356;28;20044;-74
2024/02/26 05:16:02;;;;;;;33.33;21.33;;;;;;;7.42;100.00;92478.25;5063035;28;20506;-74
2024/02/26 05:18:29;;;;;;;42.92;25.95;;;;;;;7.48;100.00;92487.66;5067303;28;20808;-74
2024/02/26 05:20:56;;;;;;;56.13;36.25;;;;;;;7.42;100.00;92477.47;5064918;28;20425;-74
2024/02/26 05:23:23;;;;;;;61.25;36.95;;;;;;;7.40;100.00;92464.91;5063549;28;20053;-74
2024/02/26 05:25:50;;;;;;;43.38;29.15;;;;;;;7.67;100.00;92502.25;5062520;28;20127;-74
2024/02/26 05:28:20;;;;;;;37.70;26.52;;;;;;;7.73;100.00;92509.09;5067980;28;20048;-74
2024/02/26 05:30:48;;;;;;;36.35;23.25;;;;;;;7.79;100.00;92510.03;5066355;28;20593;-73
2024/02/26 05:33:15;;;;;;;31.52;19.42;;;;;;;7.82;100.00;92507.06;5065141;28;20481;-73
2024/02/26 05:35:42;;;;;;;24.83;16.83;;;;;;;7.81;100.00;92510.59;5060252;28;20059;-74
2024/02/26 05:38:09;;;;;;;25.50;16.98;;;;;;;7.74;100.00;92519.09;5060793;28;20041;-74
2024/02/26 05:40:36;;;;;;;30.92;20.38;;;;;;;7.73;100.00;92520.09;5065072;28;20545;-73
2024/02/26 05:43:03;;;;;;;32.25;18.67;;;;;;;7.73;100.00;92517.53;5064857;28;20036;-73
2024/02/26 05:45:30;;;;;;;33.35;20.42;;;;;;;7.82;100.00;92523.16;5067563;28;20426;-73
2024/02/26 05:47:58;;;;;;;24.48;17.20;;;;;;;7.75;100.00;92518.13;5059693;28;20047;-74
2024/02/26 05:50:25;;;;;;;24.33;14.63;;;;;;;7.93;100.00;92533.72;5066270;28;20056;-74
2024/02/26 05:52:52;;;;;;;23.45;14.48;;;;;;;7.98;100.00;92528.75;5063737;28;20052;-74
2024/02/26 05:55:19;;;;;;;67.70;35.60;;;;;;;8.05;100.00;92510.78;5063620;28;20494;-74
2024/02/26 05:57:46;;;;;;;51.33;28.65;;;;;;;8.12;100.00;92530.19;5066455;28;20055;-74
2024/02/26 06:00:14;;;;;;;83.60;46.83;;;;;;;8.17;100.00;92527.00;5063126;28;20056;-73
2024/02/26 06:02:41;;;;;;;40.58;25.05;;;;;;;8.22;100.00;92527.16;5062168;28;20052;-74
2024/02/26 06:05:09;;;;;;;32.35;19.25;;;;;;;8.21;100.00;92525.59;5066792;28;20040;-74
2024/02/26 06:07:36;;;;;;;27.52;18.25;;;;;;;8.20;100.00;92521.44;5065386;28;20047;-74
2024/02/26 06:10:04;;;;;;;27.23;18.98;;;;;;;8.11;100.00;92503.03;5060289;28;20090;-74
2024/02/26 06:12:36;;;;;;;28.27;19.80;;;;;;;8.13;100.00;92521.53;5067239;28;20056;-74
2024/02/26 06:15:04;;;;;;;32.03;20.92;;;;;;;8.15;100.00;92522.09;5061491;28;20566;-74
2024/02/26 06:17:31;;;;;;;34.60;23.48;;;;;;;8.23;100.00;92512.56;5064143;28;20122;-74
2024/02/26 06:19:59;;;;;;;33.08;23.88;;;;;;;8.29;100.00;92525.31;5060592;28;20055;-74
2024/02/26 06:22:27;;;;;;;34.70;25.15;;;;;;;8.38;100.00;92525.03;5056744;28;20056;-74
2024/02/26 06:24:54;;;;;;;35.55;23.63;;;;;;;8.40;100.00;92523.03;5052300;28;20082;-75
2024/02/26 06:27:22;;;;;;;35.40;24.30;;;;;;;8.23;100.00;92492.91;5053707;28;20049;-74
2024/02/26 06:29:49;;;;;;;40.95;26.98;;;;;;;8.48;100.00;92530.41;5051427;28;20052;-74
2024/02/26 06:32:16;;;;;;;36.10;24.23;;;;;;;8.28;100.00;92492.25;5052826;28;20052;-74
2024/02/26 06:34:43;;;;;;;31.10;21.15;;;;;;;8.59;100.00;92533.28;5050198;28;20107;-74
2024/02/26 06:37:10;;;;;;;32.20;21.65;;;;;;;8.51;100.00;92530.00;5051088;28;20067;-79
2024/02/26 06:39:39;;;;;;;31.58;19.50;;;;;;;8.68;100.00;92537.94;5049525;28;20051;-74
2024/02/26 06:42:06;;;;;;;29.17;19.33;;;;;;;8.72;100.00;92535.72;5050294;28;20045;-74
2024/02/26 06:44:33;;;;;;;28.85;19.77;;;;;;;8.80;100.00;92539.78;5049296;28;20052;-74
2024/02/26 06:47:00;;;;;;;35.50;19.05;;;;;;;8.86;100.00;92538.91;5049246;28;20051;-74
2024/02/26 06:49:27;;;;;;;25.80;18.25;;;;;;;8.88;100.00;92536.91;5054623;28;20119;-74
2024/02/26 06:51:54;;;;;;;34.67;25.23;;;;;;;8.41;100.00;92491.31;5052186;28;20056;-74
2024/02/26 06:54:21;;;;;;;33.30;24.30;;;;;;;8.71;100.00;92544.41;5054142;28;20090;-74
2024/02/26 06:56:49;;;;;;;35.13;25.42;;;;;;;8.51;100.00;92542.81;5052466;28;20044;-74
2024/02/26 06:59:16;;;;;;;37.60;24.73;;;;;;;8.34;100.00;92547.69;5055184;28;20044;-74
2024/02/26 07:01:44;;;;;;;41.88;24.73;;;;;;;8.42;100.00;92542.31;5055722;28;20056;-74
2024/02/26 07:04:11;;;;;;;34.10;23.90;;;;;;;8.59;100.00;92546.09;5059155;28;20045;-74
2024/02/26 07:06:38;;;;;;;33.92;25.08;;;;;;;8.53;100.00;92553.63;5055950;28;20045;-73
2024/02/26 07:09:05;;;;;;;34.42;23.85;;;;;;;8.43;100.00;92558.47;5060571;28;20043;-73
2024/02/26 07:11:32;;;;;;;43.65;26.67;;;;;;;8.35;100.00;92556.94;5058688;28;20042;-74
2024/02/26 07:14:01;;;;;;;49.80;28.55;;;;;;;8.14;100.00;92558.09;5053696;28;20052;-74
2024/02/26 07:16:28;;;;;;;51.15;29.52;;;;;;;8.10;100.00;92562.88;5055974;28;20037;-73
2024/02/26 07:18:55;;;;;;;61.83;34.42;;;;;;;8.07;100.00;92563.31;5060907;28;20048;-74
2024/02/26 07:21:21;;;;;;;72.25;34.67;;;;;;;8.29;100.00;92568.03;5058285;28;20052;-74
2024/02/26 07:23:48;;;;;;;66.47;34.40;;;;;;;8.51;100.00;92560.72;5049907;28;20052;-74
2024/02/26 07:26:17;;;;;;;65.05;30.83;;;;;;;8.47;100.00;92566.50;5050563;28;20045;-74
2024/02/26 07:28:44;;;;;;;75.57;32.35;;;;;;;8.51;100.00;92558.16;5053040;28;20049;-74
2024/02/26 07:31:12;;;;;;;61.17;31.30;;;;;;;8.69;100.00;92572.00;5055581;28;20049;-74
2024/02/26 07:33:39;;;;;;;68.45;31.85;;;;;;;8.75;100.00;92557.56;5050442;28;20061;-74
2024/02/26 07:36:06;;;;;;;59.42;32.17;;;;;;;8.71;100.00;92556.41;5058928;28;20630;-74
2024/02/26 07:38:33;;;;;;;62.00;29.95;;;;;;;8.88;100.00;92577.13;5047247;28;20053;-74
2024/02/26 07:41:02;;;;;;;60.35;31.20;;;;;;;8.89;100.00;92578.69;5047141;28;20051;-74
2024/02/26 07:43:29;;;;;;;62.03;32.28;;;;;;;8.99;100.00;92568.72;5052306;28;20049;-74
2024/02/26 07:45:56;;;;;;;57.75;28.92;;;;;;;9.17;100.00;92567.88;5047568;28;20053;-74
2024/02/26 07:48:24;;;;;;;50.17;27.58;;;;;;;9.34;100.00;92547.56;5050987;28;20048;-74
2024/02/26 07:50:51;;;;;;;60.58;29.13;;;;;;;9.62;100.00;92565.91;5049234;28;20048;-74
2024/02/26 07:53:18;;;;;;;53.53;27.67;;;;;;;9.79;100.00;92565.28;5047094;28;20055;-74
2024/02/26 07:55:45;;;;;;;55.92;28.70;;;;;;;9.93;100.00;92556.41;5047058;28;20425;-74
2024/02/26 07:58:12;;;;;;;63.17;29.77;;;;;;;10.21;100.00;92569.56;5057599;28;20050;-74
2024/02/26 08:00:39;;;;;;;59.08;28.85;;;;;;;10.40;100.00;92565.09;5052664;28;20077;-74
2024/02/26 08:03:06;;;;;;;61.55;28.63;;;;;;;10.55;100.00;92554.41;5055454;28;20044;-74
2024/02/26 08:05:34;;;;;;;58.80;29.48;;;;;;;10.59;100.00;92554.75;5059870;28;20055;-74
2024/02/26 08:08:01;;;;;;;53.92;30.05;;;;;;;10.34;100.00;92551.41;5056684;28;20147;-74
2024/02/26 08:10:28;;;;;;;46.63;22.90;;;;;;;10.36;100.00;92554.50;5055852;28;20511;-74
2024/02/26 08:12:58;;;;;;;42.38;22.85;;;;;;;10.50;100.00;92549.16;5060273;28;20060;-74
2024/02/26 08:15:25;;;;;;;54.25;27.23;;;;;;;10.66;100.00;92542.56;5063199;28;20414;-74
2024/02/26 08:17:51;;;;;;;45.10;25.10;;;;;;;10.58;100.00;92541.13;5052006;28;20051;-74
2024/02/26 08:20:18;;;;;;;36.45;18.95;;;;;;;10.73;100.00;92540.66;5056947;28;20047;-74
2024/02/26 08:22:47;;;;;;;35.28;19.50;;;;;;;10.76;100.00;92544.56;5058195;28;20086;-74
2024/02/26 08:25:15;;;;;;;32.22;18.10;;;;;;;10.57;100.00;92547.28;5059447;28;20522;-74
2024/02/26 08:27:42;;;;;;;29.50;17.60;;;;;;;10.68;100.00;92531.06;5050589;28;20131;-74
2024/02/26 08:30:10;;;;;;;35.15;18.98;;;;;;;10.80;100.00;92543.84;5052524;28;20056;-74
2024/02/26 08:32:37;;;;;;;35.85;19.30;;;;;;;11.04;100.00;92543.03;5056583;28;20083;-74
2024/02/26 08:35:05;;;;;;;40.22;20.52;;;;;;;10.99;100.00;92540.34;5065489;28;20063;-74
2024/02/26 08:37:32;;;;;;;37.15;19.63;;;;;;;11.28;100.00;92553.22;5064929;28;20078;-74
2024/02/26 08:40:00;;;;;;;26.98;16.67;;;;;;;11.57;100.00;92553.97;5051531;28;20045;-73
2024/02/26 08:42:27;;;;;;;25.55;14.73;;;;;;;11.62;98.54;92558.44;5055619;28;20054;-74
2024/02/26 08:44:55;;;;;;;26.80;14.70;;;;;;;11.69;96.72;92555.72;5057864;28;20052;-74
2024/02/26 08:47:22;;;;;;;27.63;16.35;;;;;;;11.71;96.94;92554.47;5054076;28;20442;-74
2024/02/26 08:49:49;;;;;;;27.20;16.40;;;;;;;11.75;96.68;92560.72;5058010;28;20095;-73
2024/02/26 08:52:16;;;;;;;22.40;13.35;;;;;;;11.90;96.98;92554.25;5051481;28;20642;-74
2024/02/26 08:54:43;;;;;;;23.60;13.45;;;;;;;12.00;96.44;92548.47;5050117;28;20842;-74
2024/02/26 08:57:11;;;;;;;48.53;27.58;;;;;;;11.98;94.79;92553.84;5053539;28;20045;-74
2024/02/26 08:59:38;;;;;;;296.08;177.63;;;;;;;11.83;96.18;92553.63;5051586;28;20056;-73
2024/02/26 09:02:05;;;;;;;35.17;20.25;;;;;;;11.93;95.54;92558.16;5057866;28;20056;-73
2024/02/26 09:04:32;;;;;;;21.20;13.93;;;;;;;11.92;94.54;92546.28;5053289;28;20051;-74
2024/02/26 09:06:59;;;;;;;26.77;16.40;;;;;;;12.12;95.95;92551.78;5055585;28;20051;-73
2024/02/26 09:09:26;;;;;;;18.48;13.68;;;;;;;12.26;94.24;92548.88;5050882;28;20049;-74
2024/02/26 09:11:54;;;;;;;42.10;36.05;;;;;;;12.17;92.01;92530.47;5054545;28;20049;-74
2024/02/26 09:14:23;;;;;;;19.88;14.35;;;;;;;12.24;90.84;92546.56;5053640;28;20048;-74
2024/02/26 09:16:50;;;;;;;18.30;13.00;;;;;;;12.09;90.99;92541.19;5053159;28;20064;-74
2024/02/26 09:19:16;;;;;;;19.25;13.63;;;;;;;12.40;91.19;92539.00;5051103;28;20075;-73
2024/02/26 09:21:44;;;;;;;17.88;13.18;;;;;;;12.66;92.02;92535.00;5052776;28;20049;-74
2024/02/26 09:24:11;;;;;;;16.80;11.63;;;;;;;12.92;91.23;92537.09;5050528;28;20051;-74
2024/02/26 09:26:38;;;;;;;16.98;11.55;;;;;;;12.77;88.85;92499.03;5051904;28;20059;-74
2024/02/26 09:29:05;;;;;;;16.30;11.00;;;;;;;13.19;86.73;92523.47;5062011;28;20640;-74
2024/02/26 09:31:34;;;;;;;97.10;63.88;;;;;;;13.13;83.31;92527.00;5054007;28;20044;-74
2024/02/26 09:34:01;;;;;;;25.63;16.13;;;;;;;13.11;83.11;92529.84;5051065;28;20056;-74
2024/02/26 09:36:28;;;;;;;24.60;13.95;;;;;;;13.12;85.69;92533.16;5052512;28;20060;-74
2024/02/26 09:38:55;;;;;;;20.08;11.55;;;;;;;12.76;86.02;92526.59;5053756;28;20056;-74
2024/02/26 09:41:22;;;;;;;16.38;11.10;;;;;;;12.50;86.88;92521.13;5054872;28;20037;-74
2024/02/26 09:43:53;;;;;;;15.57;10.48;;;;;;;12.81;87.44;92521.50;5052747;28;20075;-74
2024/02/26 09:46:20;;;;;;;19.38;11.05;;;;;;;12.91;86.03;92522.66;5049328;28;20056;-75
2024/02/26 09:48:49;;;;;;;18.60;11.20;;;;;;;13.22;86.32;92528.13;5054589;28;20048;-74
2024/02/26 09:51:18;;;;;;;19.40;9.98;;;;;;;13.08;83.58;92533.66;5053364;28;20052;-74
2024/02/26 09:53:47;;;;;;;22.05;10.88;;;;;;;13.20;84.27;92527.59;5060984;28;20057;-75
2024/02/26 09:56:15;;;;;;;18.92;10.75;;;;;;;13.39;85.37;92533.19;5055973;28;20041;-75
2024/02/26 09:58:45;;;;;;;16.63;10.55;;;;;;;13.47;82.57;92532.03;5060023;28;20048;-75
2024/02/26 10:01:17;;;;;;;19.58;9.98;;;;;;;13.68;83.00;92530.38;5053469;28;20052;-74
2024/02/26 10:03:45;;;;;;;14.80;8.95;;;;;;;13.58;80.90;92523.34;5049629;28;20668;-74
2024/02/26 10:06:14;;;;;;;17.67;9.80;;;;;;;13.75;80.68;92528.38;5048234;28;20045;-74
2024/02/26 10:08:42;;;;;;;15.65;9.57;;;;;;;13.57;79.91;92526.94;5053748;28;20860;-74
2024/02/26 10:11:11;;;;;;;20.80;10.07;;;;;;;13.65;80.74;92522.38;5048760;28;20053;-74
2024/02/26 10:13:38;;;;;;;14.85;9.60;;;;;;;13.97;80.67;92524.94;5051815;28;20057;-74
2024/02/26 10:16:06;;;;;;;17.90;10.07;;;;;;;14.12;81.32;92521.66;5053006;28;20132;-74
2024/02/26 10:18:49;;;;;;;16.20;9.20;;;;;;;14.39;80.01;92530.34;5056181;28;20041;-74
2024/02/26 10:21:18;;;;;;;21.13;10.13;;;;;;;14.48;78.93;92522.94;5045064;28;20045;-75
2024/02/26 10:23:47;;;;;;;21.45;11.10;;;;;;;14.69;79.87;92524.56;5061964;28;21395;-74
2024/02/26 10:26:14;;;;;;;15.40;9.00;;;;;;;14.84;78.98;92520.53;5049849;28;20552;-75
2024/02/26 10:28:43;;;;;;;21.45;9.77;;;;;;;14.94;77.92;92512.81;5049990;28;20442;-74
2024/02/26 10:31:10;;;;;;;16.45;9.70;;;;;;;14.93;77.18;92497.53;5051652;28;20059;-74
2024/02/26 10:33:38;;;;;;;19.08;10.63;;;;;;;15.19;75.85;92505.38;5048534;28;20521;-75
2024/02/26 10:36:06;;;;;;;22.50;9.82;;;;;;;14.93;75.58;92508.66;5053930;28;20049;-74
2024/02/26 10:38:36;;;;;;;19.08;10.13;;;;;;;15.02;75.59;92495.25;5049911;28;20106;-74
2024/02/26 10:41:03;;;;;;;18.90;12.40;;;;;;;15.28;75.56;92509.00;5050108;28;20146;-74
2024/02/26 10:43:30;;;;;;;27.73;12.85;;;;;;;15.08;75.37;92478.69;5049460;28;20097;-75
2024/02/26 10:45:57;;;;;;;25.00;12.35;;;;;;;15.26;75.23;92492.97;5049499;28;20049;-75
2024/02/26 10:48:24;;;;;;;29.17;14.70;;;;;;;15.58;76.15;92509.31;5050242;28;20121;-74
2024/02/26 10:50:52;;;;;;;45.92;19.77;;;;;;;15.55;75.34;92497.66;5050085;28;20052;-74
2024/02/26 10:53:22;;;;;;;46.30;17.83;;;;;;;15.68;74.84;92501.56;5047647;28;20088;-74
2024/02/26 10:55:55;;;;;;;39.28;17.05;;;;;;;15.59;74.20;92477.22;5050615;28;20823;-74
2024/02/26 10:58:24;;;;;;;32.13;14.15;;;;;;;15.75;73.81;92491.72;5051324;28;20041;-74
2024/02/26 11:00:52;;;;;;;33.65;13.73;;;;;;;15.81;73.12;92497.69;5051691;28;20056;-74
2024/02/26 11:03:20;;;;;;;32.25;12.40;;;;;;;15.82;73.40;92498.44;5057932;28;20047;-74
2024/02/26 11:05:50;;;;;;;32.17;13.82;;;;;;;15.90;73.45;92495.34;5051426;28;20045;-75
2024/02/26 11:08:20;;;;;;;27.30;12.18;;;;;;;15.66;70.77;92500.25;5048299;28;20425;-75
2024/02/26 11:10:49;;;;;;;32.95;14.60;;;;;;;15.75;71.68;92496.88;5052467;28;20049;-74
2024/02/26 11:13:20;;;;;;;31.13;15.35;;;;;;;15.66;70.92;92508.81;5049272;28;20049;-75
2024/02/26 11:15:48;;;;;;;20.65;10.27;;;;;;;15.33;70.84;92506.44;5051148;28;20055;-75
2024/02/26 11:18:17;;;;;;;20.10;10.35;;;;;;;14.66;72.69;92475.97;5051740;28;20095;-75